createdAt,value
2022-09-15T00:00:47.026Z,4.50
2022-09-15T00:02:49.808Z,7.45
2022-09-15T00:04:52.423Z,4.18
2022-09-15T00:06:55.008Z,6.35
2022-09-15T00:08:59.236Z,5.97
2022-09-15T00:11:10.014Z,4.72
2022-09-15T00:13:12.580Z,6.68
2022-09-15T00:15:17.607Z,6.82
2022-09-15T00:17:20.514Z,4.93
2022-09-15T00:19:23.084Z,4.68
2022-09-15T00:21:28.486Z,6.57
2022-09-15T00:23:31.015Z,5.57
2022-09-15T00:25:33.607Z,9.38
2022-09-15T00:27:37.765Z,11.65
2022-09-15T00:29:40.305Z,4.18
2022-09-15T00:31:42.829Z,7.35
2022-09-15T00:33:47.928Z,8.57
2022-09-15T00:35:53.348Z,11.55
2022-09-15T00:37:55.907Z,3.22
2022-09-15T00:39:58.511Z,5.38
2022-09-15T00:42:01.131Z,6.18
2022-09-15T00:44:07.030Z,3.78
2022-09-15T00:46:10.761Z,7.43
2022-09-15T00:48:16.532Z,6.43
2022-09-15T00:50:21.553Z,4.30
2022-09-15T00:52:29.918Z,7.35
2022-09-15T00:54:36.888Z,6.53
2022-09-15T00:56:42.590Z,7.28
2022-09-15T00:58:51.794Z,5.10
2022-09-15T01:01:01.071Z,7.28
2022-09-15T01:03:04.935Z,4.60
2022-09-15T01:05:10.917Z,3.78
2022-09-15T01:07:19.268Z,3.58
2022-09-15T01:09:27.326Z,2.72
2022-09-15T01:11:30.348Z,4.28
2022-09-15T01:13:32.879Z,6.28
2022-09-15T01:15:44.247Z,5.45
2022-09-15T01:18:04.249Z,7.88
2022-09-15T01:20:48.206Z,4.53
2022-09-15T01:23:03.567Z,5.78
2022-09-15T01:25:11.613Z,3.90
2022-09-15T01:27:41.730Z,3.70
2022-09-15T01:30:07.010Z,5.55
2022-09-15T01:32:31.371Z,6.03
2022-09-15T01:34:41.557Z,4.00
2022-09-15T01:36:51.516Z,4.95
2022-09-15T01:39:00.882Z,6.13
2022-09-15T01:41:09.220Z,3.53
2022-09-15T01:43:13.764Z,7.55
2022-09-15T01:45:23.143Z,6.72
2022-09-15T01:47:29.130Z,5.93
2022-09-15T01:49:39.245Z,6.45
2022-09-15T01:51:44.132Z,4.32
2022-09-15T01:53:48.137Z,3.08
2022-09-15T01:55:55.524Z,4.60
2022-09-15T01:57:58.729Z,4.65
2022-09-15T02:00:01.341Z,5.93
2022-09-15T02:02:09.948Z,2.67
2022-09-15T02:04:18.893Z,5.05
2022-09-15T02:06:36.561Z,2.17
2022-09-15T02:08:47.530Z,5.35
2022-09-15T02:10:59.229Z,3.28
2022-09-15T02:15:15.057Z,2.97
2022-09-15T02:17:21.829Z,2.58
2022-09-15T02:19:32.101Z,2.40
2022-09-15T02:21:42.832Z,2.72
2022-09-15T02:23:51.184Z,6.18
2022-09-15T02:25:58.067Z,4.03
2022-09-15T02:28:05.543Z,8.50
2022-09-15T02:30:11.872Z,3.38
2022-09-15T02:32:16.822Z,7.60
2022-09-15T02:34:24.908Z,3.65
2022-09-15T02:36:30.044Z,3.08
2022-09-15T02:38:44.516Z,4.03
2022-09-15T02:40:48.877Z,5.45
2022-09-15T02:42:56.244Z,5.05
2022-09-15T02:45:00.672Z,3.92
2022-09-15T02:47:04.834Z,2.05
2022-09-15T02:49:07.636Z,5.93
2022-09-15T02:51:11.568Z,2.92
2022-09-15T02:53:14.152Z,8.55
2022-09-15T02:55:16.870Z,3.05
2022-09-15T02:57:19.828Z,2.72
2022-09-15T02:59:22.366Z,4.18
2022-09-15T03:01:31.698Z,4.53
2022-09-15T03:03:37.857Z,2.03
2022-09-15T03:05:42.416Z,2.45
2022-09-15T03:07:46.338Z,3.67
2022-09-15T03:09:48.863Z,6.55
2022-09-15T03:11:51.402Z,3.92
2022-09-15T03:13:55.951Z,1.77
2022-09-15T03:15:58.501Z,3.13
2022-09-15T03:18:02.657Z,7.10
2022-09-15T03:20:07.274Z,3.50
2022-09-15T03:22:10.445Z,5.13
2022-09-15T03:24:15.328Z,1.63
2022-09-15T03:26:18.244Z,5.07
2022-09-15T03:28:23.788Z,2.63
2022-09-15T03:30:26.374Z,1.85
2022-09-15T03:32:29.019Z,2.17
2022-09-15T03:34:31.841Z,2.20
2022-09-15T03:36:34.689Z,4.05
2022-09-15T03:38:37.265Z,2.00
2022-09-15T03:40:42.916Z,2.88
2022-09-15T03:42:45.455Z,1.48
2022-09-15T03:44:48.013Z,3.40
2022-09-15T03:46:51.112Z,4.47
2022-09-15T03:48:53.613Z,5.00
2022-09-15T03:50:56.194Z,1.88
2022-09-15T03:53:00.417Z,2.17
2022-09-15T03:55:02.923Z,2.05
2022-09-15T03:57:09.466Z,3.85
2022-09-15T03:59:12.098Z,4.28
2022-09-15T04:01:15.002Z,2.03
2022-09-15T04:03:17.635Z,4.43
2022-09-15T04:05:20.192Z,3.47
2022-09-15T04:07:22.739Z,4.50
2022-09-15T04:09:25.877Z,3.13
2022-09-15T04:11:28.716Z,2.58
2022-09-15T04:13:32.632Z,1.45
2022-09-15T04:15:35.234Z,2.13
2022-09-15T04:17:37.813Z,2.00
2022-09-15T04:19:40.600Z,2.67
2022-09-15T04:21:43.144Z,6.32
2022-09-15T04:23:46.708Z,8.23
2022-09-15T04:25:56.536Z,2.67
2022-09-15T04:27:59.065Z,3.25
2022-09-15T04:30:03.036Z,4.53
2022-09-15T04:32:05.897Z,4.47
2022-09-15T04:34:09.378Z,4.32
2022-09-15T04:36:13.962Z,7.63
2022-09-15T04:38:16.575Z,2.08
2022-09-15T04:40:19.255Z,9.43
2022-09-15T04:42:22.038Z,5.03
2022-09-15T04:44:24.845Z,3.40
2022-09-15T04:46:28.943Z,5.15
2022-09-15T04:48:32.429Z,5.80
2022-09-15T04:50:34.995Z,2.42
2022-09-15T04:52:37.551Z,3.75
2022-09-15T04:54:40.050Z,2.15
2022-09-15T04:56:42.686Z,6.22
2022-09-15T04:58:47.264Z,4.55
2022-09-15T05:00:49.929Z,3.85
2022-09-15T05:02:53.983Z,3.00
2022-09-15T05:04:56.574Z,1.88
2022-09-15T05:06:59.146Z,2.17
2022-09-15T05:09:04.450Z,4.20
2022-09-15T05:11:12.258Z,10.40
2022-09-15T05:13:14.794Z,2.22
2022-09-15T05:15:17.552Z,3.42
2022-09-15T05:17:22.275Z,3.78
2022-09-15T05:19:28.004Z,2.50
2022-09-15T05:21:30.787Z,4.43
2022-09-15T05:23:35.182Z,4.78
2022-09-15T05:25:38.766Z,3.45
2022-09-15T05:27:41.305Z,2.28
2022-09-15T05:29:44.031Z,3.53
2022-09-15T05:31:46.587Z,4.78
2022-09-15T05:33:51.220Z,4.07
2022-09-15T05:35:57.034Z,4.68
2022-09-15T05:37:59.608Z,2.17
2022-09-15T05:40:06.329Z,3.72
2022-09-15T05:42:10.859Z,2.88
2022-09-15T05:44:13.444Z,3.70
2022-09-15T05:46:17.574Z,3.75
2022-09-15T05:48:20.131Z,9.05
2022-09-15T05:50:22.681Z,2.20
2022-09-15T05:52:26.512Z,5.60
2022-09-15T05:54:29.047Z,2.75
2022-09-15T05:56:32.001Z,6.15
2022-09-15T05:58:35.288Z,4.75
2022-09-15T06:00:37.959Z,3.42
2022-09-15T06:02:41.113Z,5.65
2022-09-15T06:04:43.709Z,8.57
2022-09-15T06:06:46.280Z,3.70
2022-09-15T06:08:57.013Z,6.22
2022-09-15T06:11:06.390Z,7.60
2022-09-15T06:13:09.016Z,5.63
2022-09-15T06:15:12.504Z,4.28
2022-09-15T06:17:15.032Z,4.13
2022-09-15T06:19:17.657Z,5.00
2022-09-15T06:21:22.011Z,3.70
2022-09-15T06:23:24.855Z,2.63
2022-09-15T06:25:28.756Z,2.63
2022-09-15T06:27:31.276Z,3.80
2022-09-15T06:29:33.813Z,5.35
2022-09-15T06:31:36.672Z,6.57
2022-09-15T06:33:43.475Z,4.10
2022-09-15T06:35:46.893Z,4.03
2022-09-15T06:37:51.407Z,6.20
2022-09-15T06:39:54.122Z,6.70
2022-09-15T06:42:02.780Z,6.25
2022-09-15T06:44:06.203Z,5.68
2022-09-15T06:46:10.797Z,2.78
2022-09-15T06:48:24.484Z,5.28
2022-09-15T06:50:27.587Z,4.63
2022-09-15T06:52:30.216Z,5.68
2022-09-15T06:54:32.853Z,3.63
2022-09-15T06:56:38.157Z,6.18
2022-09-15T06:58:43.907Z,4.30
2022-09-15T07:00:46.753Z,5.55
2022-09-15T07:02:50.090Z,5.00
2022-09-15T07:04:52.709Z,5.63
2022-09-15T07:06:55.265Z,6.13
2022-09-15T07:08:58.868Z,5.72
2022-09-15T07:11:02.305Z,5.10
2022-09-15T07:13:04.954Z,7.07
2022-09-15T07:15:10.498Z,5.18
2022-09-15T07:17:13.580Z,3.75
2022-09-15T07:19:16.271Z,3.85
2022-09-15T07:21:20.779Z,4.32
2022-09-15T07:23:23.389Z,4.07
2022-09-15T07:25:25.958Z,3.63
2022-09-15T07:27:31.539Z,5.68
2022-09-15T07:29:37.730Z,3.85
2022-09-15T07:31:41.901Z,4.60
2022-09-15T07:33:44.720Z,3.78
2022-09-15T07:35:47.638Z,4.95
2022-09-15T07:37:51.808Z,4.63
2022-09-15T07:39:54.374Z,3.42
2022-09-15T07:41:56.941Z,5.75
2022-09-15T07:44:01.214Z,5.28
2022-09-15T07:46:04.338Z,4.18
2022-09-15T07:48:08.322Z,4.20
2022-09-15T07:50:10.988Z,5.90
2022-09-15T07:52:13.774Z,8.10
2022-09-15T07:54:21.496Z,4.07
2022-09-15T07:56:25.609Z,4.03
2022-09-15T07:58:28.160Z,2.45
2022-09-15T08:00:34.083Z,4.20
2022-09-15T08:02:37.243Z,5.97
2022-09-15T08:04:41.255Z,6.07
2022-09-15T08:06:43.788Z,4.10
2022-09-15T08:08:47.126Z,4.82
2022-09-15T08:10:50.149Z,5.00
2022-09-15T08:12:52.952Z,4.07
2022-09-15T08:14:55.464Z,4.18
2022-09-15T08:17:00.903Z,3.15
2022-09-15T08:19:03.484Z,3.25
2022-09-15T08:21:09.437Z,3.25
2022-09-15T08:23:12.623Z,4.45
2022-09-15T08:25:15.291Z,2.58
2022-09-15T08:27:17.788Z,3.97
2022-09-15T08:29:20.734Z,3.15
2022-09-15T08:31:24.880Z,2.92
2022-09-15T08:33:27.816Z,4.75
2022-09-15T08:35:31.379Z,2.00
2022-09-15T08:37:35.382Z,3.30
2022-09-15T08:39:37.967Z,1.73
2022-09-15T08:41:43.954Z,1.15
2022-09-15T08:43:51.477Z,1.35
2022-09-15T08:45:59.722Z,1.52
2022-09-15T08:48:05.737Z,3.85
2022-09-15T08:50:15.579Z,7.25
2022-09-15T08:52:23.711Z,3.78
2022-09-15T08:54:30.009Z,1.65
2022-09-15T08:56:32.618Z,4.22
2022-09-15T08:58:37.677Z,3.90
2022-09-15T09:00:41.849Z,3.65
2022-09-15T09:03:05.232Z,2.28
2022-09-15T09:05:19.313Z,1.75
2022-09-15T09:07:37.010Z,3.47
2022-09-15T09:09:47.786Z,1.40
2022-09-15T09:12:06.973Z,2.47
2022-09-15T09:14:21.629Z,1.90
2022-09-15T09:16:38.352Z,2.00
2022-09-15T09:19:15.696Z,1.15
2022-09-15T09:21:26.503Z,1.40
2022-09-15T09:23:33.336Z,2.47
2022-09-15T09:25:38.336Z,0.80
2022-09-15T09:27:41.028Z,4.97
2022-09-15T09:29:49.426Z,1.58
2022-09-15T09:31:55.789Z,2.03
2022-09-15T09:34:06.597Z,4.70
2022-09-15T09:36:12.508Z,1.80
2022-09-15T09:38:21.938Z,0.80
2022-09-15T09:40:24.665Z,1.08
2022-09-15T09:42:31.817Z,1.65
2022-09-15T09:44:35.755Z,4.65
2022-09-15T09:46:38.643Z,4.30
2022-09-15T09:48:46.388Z,0.82
2022-09-15T09:50:50.071Z,1.40
2022-09-15T09:52:52.603Z,2.50
2022-09-15T09:55:01.708Z,1.73
2022-09-15T09:57:27.954Z,3.08
2022-09-15T09:59:40.703Z,1.25
2022-09-15T10:02:21.422Z,2.30
2022-09-15T10:04:24.034Z,2.92
2022-09-15T10:06:31.900Z,0.93
2022-09-15T10:08:36.349Z,1.10
2022-09-15T10:10:39.504Z,1.95
2022-09-15T10:12:42.655Z,1.73
2022-09-15T10:14:52.662Z,1.42
2022-09-15T10:16:59.968Z,4.25
2022-09-15T10:19:02.775Z,1.10
2022-09-15T10:21:07.331Z,2.90
2022-09-15T10:23:27.228Z,1.70
2022-09-15T10:25:49.678Z,1.63
2022-09-15T10:28:04.683Z,1.02
2022-09-15T10:30:19.668Z,1.95
2022-09-15T10:32:27.951Z,2.05
2022-09-15T10:34:31.750Z,1.58
2022-09-15T10:36:34.364Z,1.38
2022-09-15T10:38:44.229Z,1.77
2022-09-15T10:40:55.698Z,1.00
2022-09-15T10:43:06.867Z,1.77
2022-09-15T10:45:25.880Z,1.48
2022-09-15T10:47:38.178Z,2.20
2022-09-15T10:49:55.207Z,2.00
2022-09-15T10:52:05.194Z,1.48
2022-09-15T10:54:31.772Z,3.55
2022-09-15T10:56:37.841Z,2.53
2022-09-15T10:59:03.681Z,2.70
2022-09-15T11:01:27.096Z,3.42
2022-09-15T11:03:43.331Z,3.40
2022-09-15T11:06:01.420Z,1.83
2022-09-15T11:08:45.382Z,0.95
2022-09-15T11:10:52.928Z,2.90
2022-09-15T11:13:07.788Z,2.08
2022-09-15T11:15:31.532Z,1.10
2022-09-15T11:17:47.453Z,1.35
2022-09-15T11:20:05.150Z,2.80
2022-09-15T11:22:13.684Z,1.48
2022-09-15T11:24:37.815Z,4.93
2022-09-15T11:26:44.712Z,1.50
2022-09-15T11:28:53.836Z,2.88
2022-09-15T11:31:01.620Z,3.13
2022-09-15T11:33:14.091Z,4.07
2022-09-15T11:35:41.622Z,3.67
2022-09-15T11:37:49.936Z,3.63
2022-09-15T11:39:59.866Z,3.30
2022-09-15T11:42:09.787Z,3.75
2022-09-15T11:44:22.133Z,5.00
2022-09-15T11:46:38.562Z,3.38
2022-09-15T11:48:46.329Z,5.47
2022-09-15T11:50:53.221Z,1.52
2022-09-15T11:53:01.101Z,0.82
2022-09-15T11:55:14.735Z,2.42
2022-09-15T11:57:21.565Z,3.53
2022-09-15T11:59:30.718Z,6.03
2022-09-15T12:01:39.715Z,1.02
2022-09-15T12:03:50.598Z,2.17
2022-09-15T12:05:57.712Z,1.10
2022-09-15T12:08:06.454Z,2.20
2022-09-15T12:10:17.718Z,0.50
2022-09-15T12:12:22.586Z,2.47
2022-09-15T12:14:31.453Z,1.52
2022-09-15T12:16:35.224Z,2.25
2022-09-15T12:18:46.540Z,1.40
2022-09-15T12:23:03.392Z,1.55
2022-09-15T12:25:12.878Z,0.90
2022-09-15T12:27:17.049Z,0.55
2022-09-15T12:29:42.182Z,2.15
2022-09-15T12:31:46.986Z,0.50
2022-09-15T12:33:55.707Z,6.75
2022-09-15T12:36:51.165Z,1.90
2022-09-15T12:38:53.863Z,3.38
2022-09-15T12:40:59.701Z,1.02
2022-09-15T12:43:03.377Z,0.65
2022-09-15T12:45:20.948Z,2.10
2022-09-15T12:47:31.874Z,1.88
2022-09-15T12:49:37.763Z,2.07
2022-09-15T12:51:50.149Z,1.73
2022-09-15T12:53:57.409Z,3.08
2022-09-15T12:56:03.368Z,1.75
2022-09-15T12:58:09.489Z,1.90
2022-09-15T13:00:54.853Z,1.83
2022-09-15T13:03:04.480Z,1.33
2022-09-15T13:05:11.594Z,3.50
2022-09-15T13:10:28.739Z,1.20
2022-09-15T13:12:36.711Z,2.63
2022-09-15T13:14:42.600Z,5.38
2022-09-15T13:16:53.720Z,1.73
2022-09-15T13:19:08.177Z,1.92
2022-09-15T13:21:16.430Z,4.53
2022-09-15T13:23:24.941Z,3.05
2022-09-15T13:25:31.247Z,2.88
2022-09-15T13:27:37.277Z,4.68
2022-09-15T13:29:47.877Z,3.28
2022-09-15T13:31:56.230Z,5.60
2022-09-15T13:39:44.041Z,6.70
2022-09-15T13:42:22.153Z,4.70
2022-09-15T13:44:47.793Z,5.45
2022-09-15T13:47:01.085Z,4.40
2022-09-15T13:49:26.283Z,7.10
2022-09-15T13:51:30.857Z,6.47
2022-09-15T13:53:45.392Z,4.10
2022-09-15T13:55:48.823Z,2.83
2022-09-15T14:00:23.176Z,3.45
2022-09-15T14:02:26.072Z,3.20
2022-09-15T14:04:32.076Z,7.43
2022-09-15T14:06:37.632Z,5.95
2022-09-15T14:08:42.660Z,6.30
2022-09-15T14:10:49.289Z,7.25
2022-09-15T14:12:54.524Z,5.03
2022-09-15T14:14:59.024Z,3.83
2022-09-15T14:17:01.894Z,2.85
2022-09-15T14:19:25.454Z,3.60
2022-09-15T14:21:29.965Z,4.63
2022-09-15T14:23:33.666Z,3.00
2022-09-15T14:25:36.450Z,3.92
2022-09-15T14:27:45.423Z,9.50
2022-09-15T14:29:54.389Z,6.03
2022-09-15T14:32:03.712Z,3.88
2022-09-15T14:34:07.685Z,4.28
2022-09-15T14:36:14.875Z,6.20
2022-09-15T14:38:22.532Z,8.35
2022-09-15T14:40:29.497Z,5.60
2022-09-15T14:42:36.424Z,4.75
2022-09-15T14:47:12.046Z,7.40
2022-09-15T14:49:16.145Z,7.97
2022-09-15T14:51:23.113Z,8.07
2022-09-15T14:53:28.145Z,18.42
2022-09-15T14:55:35.769Z,12.45
2022-09-15T14:57:40.772Z,5.72
2022-09-15T14:59:49.348Z,7.93
2022-09-15T15:01:57.943Z,5.75
2022-09-15T15:04:11.651Z,7.05
2022-09-15T15:06:35.879Z,10.70
2022-09-15T15:08:46.439Z,12.90
2022-09-15T15:10:49.166Z,10.98
2022-09-15T15:12:54.618Z,14.07
2022-09-15T15:14:58.115Z,28.27
2022-09-15T15:17:02.814Z,8.40
2022-09-15T15:19:06.910Z,8.60
2022-09-15T15:21:38.186Z,12.88
2022-09-15T15:23:47.075Z,7.30
2022-09-15T15:25:50.016Z,4.28
2022-09-15T15:27:54.060Z,5.10
2022-09-15T15:29:56.709Z,4.63
2022-09-15T15:32:05.736Z,5.03
2022-09-15T15:34:25.448Z,2.83
2022-09-15T15:36:30.129Z,4.78
2022-09-15T15:38:36.025Z,3.95
2022-09-15T15:40:42.560Z,3.60
2022-09-15T15:42:56.508Z,5.57
2022-09-15T15:45:05.165Z,2.97
2022-09-15T15:47:25.975Z,5.00
2022-09-15T15:49:32.537Z,4.78
2022-09-15T15:51:35.336Z,5.28
2022-09-15T15:53:37.905Z,5.60
2022-09-15T15:55:42.554Z,6.25
2022-09-15T15:57:47.388Z,4.00
2022-09-15T15:59:49.999Z,4.70
2022-09-15T16:01:53.763Z,7.63
2022-09-15T16:03:56.380Z,5.82
2022-09-15T16:06:02.924Z,5.68
2022-09-15T16:08:08.117Z,4.63
2022-09-15T16:10:16.639Z,4.93
2022-09-15T16:12:19.156Z,4.00
2022-09-15T16:14:21.713Z,4.82
2022-09-15T16:16:26.347Z,4.70
2022-09-15T16:18:29.381Z,2.85
2022-09-15T16:20:31.915Z,3.40
2022-09-15T16:22:36.204Z,3.20
2022-09-15T16:24:38.741Z,6.80
2022-09-15T16:26:41.944Z,4.50
2022-09-15T16:28:44.627Z,6.03
2022-09-15T16:30:47.682Z,5.90
2022-09-15T16:32:50.235Z,4.95
2022-09-15T16:34:54.277Z,3.80
2022-09-15T16:36:57.017Z,7.28
2022-09-15T16:39:01.053Z,10.73
2022-09-15T16:41:03.866Z,4.70
2022-09-15T16:43:11.226Z,4.85
2022-09-15T16:45:22.364Z,7.00
2022-09-15T16:47:24.984Z,3.55
2022-09-15T16:49:27.521Z,4.57
2022-09-15T16:51:31.602Z,3.45
2022-09-15T16:53:34.485Z,4.97
2022-09-15T16:55:41.905Z,6.57
2022-09-15T16:57:44.416Z,5.20
2022-09-15T16:59:47.289Z,9.63
2022-09-15T17:01:49.878Z,6.78
2022-09-15T17:03:52.396Z,5.95
2022-09-15T17:05:55.997Z,4.50
2022-09-15T17:07:58.536Z,7.88
2022-09-15T17:10:01.395Z,5.55
2022-09-15T17:12:05.966Z,10.02
2022-09-15T17:14:11.125Z,12.00
2022-09-15T17:16:17.128Z,5.55
2022-09-15T17:18:19.735Z,6.05
2022-09-15T17:20:23.216Z,7.70
2022-09-15T17:22:25.749Z,7.85
2022-09-15T17:24:28.320Z,7.28
2022-09-15T17:26:31.672Z,6.75
2022-09-15T17:28:36.502Z,11.23
2022-09-15T17:30:39.067Z,6.70
2022-09-15T17:32:41.651Z,6.60
2022-09-15T17:34:44.224Z,9.82
2022-09-15T17:36:46.790Z,9.15
2022-09-15T17:38:49.471Z,8.23
2022-09-15T17:40:55.157Z,6.15
2022-09-15T17:42:58.103Z,7.80
2022-09-15T17:45:01.968Z,18.10
2022-09-15T17:47:05.082Z,8.07
2022-09-15T17:49:07.645Z,11.15
2022-09-15T17:51:14.171Z,9.63
2022-09-15T17:53:18.231Z,10.52
2022-09-15T17:55:22.913Z,13.48
2022-09-15T17:57:26.487Z,8.85
2022-09-15T17:59:29.036Z,8.45
2022-09-15T18:01:33.090Z,11.68
2022-09-15T18:03:38.211Z,8.60
2022-09-15T18:05:40.735Z,7.82
2022-09-15T18:07:43.260Z,11.57
2022-09-15T18:09:46.091Z,15.50
2022-09-15T18:11:48.702Z,8.77
2022-09-15T18:13:54.063Z,6.32
2022-09-15T18:15:57.827Z,13.38
2022-09-15T18:18:04.087Z,9.55
2022-09-15T18:20:07.517Z,10.10
2022-09-15T18:22:10.194Z,6.95
2022-09-15T18:24:15.793Z,9.40
2022-09-15T18:26:21.449Z,7.15
2022-09-15T18:28:28.068Z,8.68
2022-09-15T18:30:33.609Z,10.05
2022-09-15T18:32:36.156Z,7.85
2022-09-15T18:34:40.002Z,10.63
2022-09-15T18:36:42.534Z,13.63
2022-09-15T18:38:45.140Z,9.65
2022-09-15T18:40:49.280Z,8.55
2022-09-15T18:42:51.932Z,9.93
2022-09-15T18:44:57.472Z,6.35
2022-09-15T18:47:00.070Z,6.13
2022-09-15T18:49:03.182Z,10.43
2022-09-15T18:51:10.125Z,12.45
2022-09-15T18:53:13.189Z,10.48
2022-09-15T18:55:19.236Z,10.07
2022-09-15T18:57:22.298Z,16.77
2022-09-15T18:59:25.015Z,31.10
2022-09-15T19:01:28.189Z,13.48
2022-09-15T19:03:31.212Z,16.45
2022-09-15T19:05:34.156Z,14.50
2022-09-15T19:07:38.089Z,19.42
2022-09-15T19:09:40.879Z,13.90
2022-09-15T19:11:43.381Z,15.52
2022-09-15T19:13:45.979Z,17.05
2022-09-15T19:15:52.803Z,14.05
2022-09-15T19:17:56.006Z,13.02
2022-09-15T19:20:00.275Z,13.55
2022-09-15T19:22:02.831Z,10.90
2022-09-15T19:24:06.857Z,10.90
2022-09-15T19:26:13.512Z,9.98
2022-09-15T19:28:16.014Z,20.17
2022-09-15T19:30:18.660Z,11.15
2022-09-15T19:32:22.193Z,11.48
2022-09-15T19:34:24.762Z,9.15
2022-09-15T19:36:28.723Z,9.57
2022-09-15T19:38:32.200Z,11.20
2022-09-15T19:40:36.639Z,14.63
2022-09-15T19:42:40.405Z,13.63
2022-09-15T19:44:45.716Z,14.48
2022-09-15T19:46:48.587Z,17.88
2022-09-15T19:48:52.135Z,13.60
2022-09-15T19:50:54.861Z,12.60
2022-09-15T19:52:59.584Z,12.13
2022-09-15T19:55:02.350Z,14.15
2022-09-15T19:57:06.292Z,14.27
2022-09-15T19:59:09.077Z,21.65
2022-09-15T20:01:11.885Z,24.20
2022-09-15T20:03:14.476Z,28.63
2022-09-15T20:05:17.466Z,22.63
2022-09-15T20:07:20.069Z,19.00
2022-09-15T20:09:22.987Z,23.02
2022-09-15T20:11:26.269Z,19.77
2022-09-15T20:13:30.258Z,20.38
2022-09-15T20:15:32.807Z,23.13
2022-09-15T20:17:35.726Z,26.13
2022-09-15T20:19:38.430Z,22.45
2022-09-15T20:21:50.711Z,20.17
2022-09-15T20:23:55.693Z,26.52
2022-09-15T20:25:59.657Z,25.48
2022-09-15T20:28:02.246Z,23.52
2022-09-15T20:30:07.784Z,23.75
2022-09-15T20:32:10.412Z,23.98
2022-09-15T20:34:13.272Z,24.55
2022-09-15T20:36:18.066Z,23.80
2022-09-15T20:38:20.880Z,19.58
2022-09-15T20:40:23.493Z,22.83
2022-09-15T20:42:26.077Z,22.50
2022-09-15T20:44:28.637Z,17.05
2022-09-15T20:46:32.515Z,21.30
2022-09-15T20:48:36.665Z,18.60
2022-09-15T20:50:39.195Z,13.00
2022-09-15T20:52:41.919Z,17.83
2022-09-15T20:54:44.512Z,15.35
2022-09-15T20:56:47.110Z,15.70
2022-09-15T20:58:49.679Z,14.02
2022-09-15T21:00:52.726Z,12.43
2022-09-15T21:02:56.861Z,11.45
2022-09-15T21:04:59.631Z,19.27
2022-09-15T21:07:02.141Z,9.18
2022-09-15T21:09:06.222Z,8.77
2022-09-15T21:11:11.395Z,15.27
2022-09-15T21:13:14.276Z,17.38
2022-09-15T21:15:17.056Z,13.80
2022-09-15T21:17:19.847Z,13.40
2022-09-15T21:19:23.746Z,17.38
2022-09-15T21:21:28.246Z,17.02
2022-09-15T21:23:33.861Z,21.23
2022-09-15T21:25:36.428Z,17.63
2022-09-15T21:27:38.936Z,15.45
2022-09-15T21:29:41.738Z,15.35
2022-09-15T21:31:44.299Z,17.42
2022-09-15T21:33:48.386Z,16.83
2022-09-15T21:35:52.316Z,18.08
2022-09-15T21:37:58.792Z,20.58
2022-09-15T21:40:04.524Z,13.45
2022-09-15T21:42:07.651Z,14.52
2022-09-15T21:44:10.611Z,9.85
2022-09-15T21:46:14.914Z,12.45
2022-09-15T21:48:17.828Z,13.10
2022-09-15T21:50:20.399Z,17.58
2022-09-15T21:52:25.364Z,10.45
2022-09-15T21:54:28.113Z,16.05
2022-09-15T21:56:31.223Z,10.27
2022-09-15T21:58:38.949Z,11.77
2022-09-15T22:00:44.273Z,11.93
2022-09-15T22:02:51.912Z,11.95
2022-09-15T22:04:54.543Z,14.88
2022-09-15T22:06:57.045Z,12.55
2022-09-15T22:09:01.912Z,10.85
2022-09-15T22:11:08.071Z,12.45
2022-09-15T22:13:11.994Z,11.23
2022-09-15T22:15:15.656Z,16.40
2022-09-15T22:17:18.215Z,13.27
2022-09-15T22:19:20.831Z,10.95
2022-09-15T22:21:25.991Z,9.93
2022-09-15T22:23:28.553Z,9.95
2022-09-15T22:25:34.013Z,8.88
2022-09-15T22:27:36.615Z,7.78
2022-09-15T22:29:39.144Z,7.82
2022-09-15T22:31:42.071Z,19.58
2022-09-15T22:33:45.670Z,6.45
2022-09-15T22:35:48.348Z,10.55
2022-09-15T22:37:50.882Z,7.70
2022-09-15T22:40:01.339Z,9.63
2022-09-15T22:42:05.429Z,12.15
2022-09-15T22:44:17.530Z,5.97
2022-09-15T22:46:20.988Z,10.73
2022-09-15T22:48:23.645Z,9.07
2022-09-15T22:50:26.228Z,10.65
2022-09-15T22:52:28.776Z,11.60
2022-09-15T22:54:31.687Z,11.15
2022-09-15T22:56:34.254Z,17.38
2022-09-15T22:58:38.739Z,12.85
2022-09-15T23:00:41.405Z,14.40
2022-09-15T23:02:44.441Z,13.98
2022-09-15T23:04:46.973Z,13.00
2022-09-15T23:06:49.943Z,12.70
2022-09-15T23:08:53.009Z,14.02
2022-09-15T23:11:02.268Z,15.05
2022-09-15T23:13:04.813Z,15.02
2022-09-15T23:15:09.777Z,14.30
2022-09-15T23:17:13.120Z,11.55
2022-09-15T23:19:15.711Z,10.65
2022-09-15T23:21:18.247Z,9.45
2022-09-15T23:23:20.749Z,11.07
2022-09-15T23:25:25.328Z,9.93
2022-09-15T23:27:27.879Z,10.48
2022-09-15T23:29:30.475Z,8.10
2022-09-15T23:31:34.375Z,10.65
2022-09-15T23:33:37.184Z,11.02
2022-09-15T23:35:39.697Z,10.80
2022-09-15T23:37:42.268Z,14.60
2022-09-15T23:39:44.790Z,8.32
2022-09-15T23:41:47.371Z,10.02
2022-09-15T23:43:49.899Z,8.45
2022-09-15T23:45:53.475Z,8.30
2022-09-15T23:47:57.377Z,13.98
2022-09-15T23:50:00.305Z,9.50
2022-09-15T23:52:03.263Z,10.00
2022-09-15T23:54:06.393Z,8.20
2022-09-15T23:56:09.204Z,8.30
2022-09-15T23:58:12.130Z,7.10
